createdAt,value
2018-03-01T00:00:39.425Z,42.55
2018-03-01T00:01:39.446Z,42.55
2018-03-01T00:02:39.404Z,42.55
2018-03-01T00:03:39.391Z,42.46
2018-03-01T00:04:39.380Z,42.74
2018-03-01T00:05:39.370Z,42.46
2018-03-01T00:06:39.357Z,42.65
2018-03-01T00:07:39.382Z,42.74
2018-03-01T00:08:39.335Z,42.55
2018-03-01T00:09:39.323Z,42.46
2018-03-01T00:10:39.311Z,42.65
2018-03-01T00:11:39.299Z,42.55
2018-03-01T00:12:39.290Z,42.65
2018-03-01T00:13:39.295Z,42.46
2018-03-01T00:14:39.265Z,41.97
2018-03-01T00:15:39.258Z,42.27
2018-03-01T00:16:39.243Z,42.36
2018-03-01T00:17:39.234Z,42.17
2018-03-01T00:18:39.220Z,42.27
2018-03-01T00:19:39.219Z,42.65
2018-03-01T00:20:39.200Z,42.27
2018-03-01T00:21:39.186Z,42.17
2018-03-01T00:22:39.175Z,42.46
2018-03-01T00:23:39.193Z,42.27
2018-03-01T00:24:39.150Z,41.88
2018-03-01T00:25:39.154Z,42.36
2018-03-01T00:26:39.127Z,42.27
2018-03-01T00:27:39.115Z,42.36
2018-03-01T00:28:39.105Z,42.07
2018-03-01T00:29:39.094Z,42.74
2018-03-01T00:30:39.082Z,42.36
2018-03-01T00:31:39.085Z,42.17
2018-03-01T00:32:39.058Z,42.27
2018-03-01T00:33:39.046Z,42.65
2018-03-01T00:34:39.035Z,42.74
2018-03-01T00:35:39.021Z,42.74
2018-03-01T00:36:39.012Z,42.46
2018-03-01T00:37:39.016Z,42.55
2018-03-01T00:38:38.989Z,42.65
2018-03-01T00:39:38.980Z,42.55
2018-03-01T00:40:38.967Z,42.65
2018-03-01T00:41:38.959Z,42.46
2018-03-01T00:42:38.942Z,42.46
2018-03-01T00:43:38.946Z,42.46
2018-03-01T00:44:38.920Z,42.74
2018-03-01T00:45:38.908Z,42.46
2018-03-01T00:46:38.896Z,42.65
2018-03-01T00:47:38.888Z,42.65
2018-03-01T00:48:38.873Z,42.46
2018-03-01T00:49:38.878Z,42.55
2018-03-01T00:50:38.850Z,42.74
2018-03-01T00:51:38.839Z,42.74
2018-03-01T00:52:38.826Z,42.36
2018-03-01T00:53:38.818Z,42.65
2018-03-01T00:54:38.803Z,42.65
2018-03-01T00:55:38.807Z,42.84
2018-03-01T00:56:38.782Z,42.55
2018-03-01T00:57:38.770Z,42.65
2018-03-01T00:58:38.757Z,42.74
2018-03-01T00:59:38.746Z,42.55
2018-03-01T01:00:38.734Z,42.46
2018-03-01T01:01:38.739Z,42.65
2018-03-01T01:02:38.714Z,42.46
2018-03-01T01:03:38.697Z,42.74
2018-03-01T01:04:38.689Z,42.46
2018-03-01T01:05:38.677Z,42.65
2018-03-01T01:06:38.665Z,42.46
2018-03-01T01:07:38.668Z,42.36
2018-03-01T01:08:38.641Z,42.65
2018-03-01T01:09:38.631Z,42.46
2018-03-01T01:10:38.617Z,42.65
2018-03-01T01:11:38.605Z,42.74
2018-03-01T01:12:38.596Z,42.65
2018-03-01T01:13:38.601Z,42.55
2018-03-01T01:14:38.571Z,42.36
2018-03-01T01:15:38.560Z,42.27
2018-03-01T01:16:38.549Z,42.36
2018-03-01T01:17:38.540Z,42.55
2018-03-01T01:18:38.524Z,42.07
2018-03-01T01:19:38.529Z,42.17
2018-03-01T01:20:38.502Z,42.17
2018-03-01T01:21:38.490Z,42.17
2018-03-01T01:22:38.477Z,41.97
2018-03-01T01:23:38.467Z,42.07
2018-03-01T01:24:38.456Z,42.17
2018-03-01T01:25:38.458Z,42.27
2018-03-01T01:26:38.432Z,42.17
2018-03-01T01:27:38.421Z,42.17
2018-03-01T01:28:38.413Z,42.46
2018-03-01T01:29:38.398Z,42.36
2018-03-01T01:30:38.384Z,42.27
2018-03-01T01:31:38.389Z,42.27
2018-03-01T01:32:38.363Z,42.07
2018-03-01T01:33:38.352Z,42.27
2018-03-01T01:34:38.340Z,42.27
2018-03-01T01:35:38.328Z,42.27
2018-03-01T01:36:38.316Z,42.27
2018-03-01T01:37:38.323Z,42.27
2018-03-01T01:38:38.291Z,42.27
2018-03-01T01:39:38.280Z,42.36
2018-03-01T01:40:38.268Z,42.27
2018-03-01T01:41:38.256Z,42.07
2018-03-01T01:42:38.245Z,42.27
2018-03-01T01:43:38.265Z,42.07
2018-03-01T01:44:38.224Z,42.36
2018-03-01T01:45:38.211Z,42.36
2018-03-01T01:46:38.198Z,42.36
2018-03-01T01:47:38.186Z,42.55
2018-03-01T01:48:38.177Z,42.27
2018-03-01T01:49:38.177Z,42.55
2018-03-01T01:50:38.152Z,42.65
2018-03-01T01:51:38.143Z,42.55
2018-03-01T01:52:38.128Z,42.55
2018-03-01T01:53:38.117Z,42.55
2018-03-01T01:54:38.105Z,42.74
2018-03-01T01:55:38.108Z,42.74
2018-03-01T01:56:38.082Z,42.65
2018-03-01T01:57:38.069Z,42.65
2018-03-01T01:58:38.058Z,42.46
2018-03-01T01:59:38.050Z,42.46
2018-03-01T02:00:38.035Z,42.94
2018-03-01T02:01:38.038Z,42.84
2018-03-01T02:02:38.012Z,42.07
2018-03-01T02:03:38.001Z,42.46
2018-03-01T02:05:07.800Z,42.55
2018-03-01T02:05:37.976Z,42.44
2018-03-01T02:06:37.964Z,42.55
2018-03-01T02:07:37.963Z,42.65
2018-03-01T02:08:37.941Z,42.36
2018-03-01T02:09:37.930Z,42.36
2018-03-01T02:10:37.918Z,42.46
2018-03-01T02:11:37.917Z,42.46
2018-03-01T02:12:37.894Z,42.36
2018-03-01T02:13:37.883Z,42.53
2018-03-01T02:14:37.870Z,42.46
2018-03-01T02:15:37.859Z,42.74
2018-03-01T02:16:37.876Z,42.55
2018-03-01T02:17:37.836Z,42.46
2018-03-01T02:18:37.826Z,42.27
2018-03-01T02:19:37.812Z,42.17
2018-03-01T02:20:37.800Z,42.27
2018-03-01T02:21:37.790Z,42.17
2018-03-01T02:22:37.792Z,42.27
2018-03-01T02:23:37.766Z,42.17
2018-03-01T02:24:37.754Z,42.17
2018-03-01T02:25:37.742Z,42.36
2018-03-01T02:26:37.735Z,42.55
2018-03-01T02:27:37.718Z,42.17
2018-03-01T02:28:37.718Z,42.07
2018-03-01T02:29:37.695Z,42.17
2018-03-01T02:30:37.689Z,42.17
2018-03-01T02:31:37.674Z,42.46
2018-03-01T02:32:37.660Z,42.46
2018-03-01T02:33:37.659Z,42.17
2018-03-01T02:34:37.641Z,42.27
2018-03-01T02:35:37.625Z,42.36
2018-03-01T02:36:37.613Z,42.17
2018-03-01T02:37:37.604Z,42.46
2018-03-01T02:38:37.604Z,41.88
2018-03-01T02:39:37.577Z,42.36
2018-03-01T02:40:37.567Z,42.46
2018-03-01T02:41:37.554Z,42.07
2018-03-01T02:42:37.541Z,42.27
2018-03-01T02:43:37.530Z,42.17
2018-03-01T02:44:37.544Z,42.27
2018-03-01T02:45:37.507Z,42.36
2018-03-01T02:46:37.495Z,42.17
2018-03-01T02:47:37.485Z,42.55
2018-03-01T02:48:37.475Z,42.65
2018-03-01T02:49:37.461Z,42.65
2018-03-01T02:50:37.460Z,42.65
2018-03-01T02:51:37.437Z,42.55
2018-03-01T02:52:37.434Z,42.55
2018-03-01T02:53:37.418Z,42.55
2018-03-01T02:54:37.401Z,42.55
2018-03-01T02:55:37.401Z,42.55
2018-03-01T02:56:37.378Z,42.46
2018-03-01T02:57:37.366Z,42.55
2018-03-01T02:58:37.353Z,42.55
2018-03-01T02:59:37.342Z,42.74
2018-03-01T03:00:37.345Z,42.55
2018-03-01T03:01:37.321Z,42.44
2018-03-01T03:02:37.309Z,42.46
2018-03-01T03:03:37.295Z,42.55
2018-03-01T03:04:37.283Z,42.46
2018-03-01T03:05:37.272Z,42.65
2018-03-01T03:06:37.282Z,42.74
2018-03-01T03:07:37.273Z,42.65
2018-03-01T03:08:37.236Z,42.74
2018-03-01T03:09:37.224Z,42.65
2018-03-01T03:10:37.213Z,42.46
2018-03-01T03:11:37.201Z,42.82
2018-03-01T03:12:37.201Z,42.53
2018-03-01T03:13:37.179Z,42.94
2018-03-01T03:14:37.165Z,42.74
2018-03-01T03:15:37.154Z,42.65
2018-03-01T03:16:37.142Z,42.17
2018-03-01T03:17:37.146Z,42.27
2018-03-01T03:18:37.118Z,42.46
2018-03-01T03:19:37.109Z,42.36
2018-03-01T03:20:37.095Z,42.55
2018-03-01T03:21:37.084Z,42.65
2018-03-01T03:22:37.070Z,42.07
2018-03-01T03:23:37.083Z,42.36
2018-03-01T03:24:37.051Z,41.97
2018-03-01T03:25:37.043Z,42.44
2018-03-01T03:26:37.024Z,42.17
2018-03-01T03:27:37.013Z,42.46
2018-03-01T03:28:37.000Z,42.17
2018-03-01T03:29:37.004Z,42.27
2018-03-01T03:30:36.978Z,42.36
2018-03-01T03:31:36.966Z,42.27
2018-03-01T03:32:36.954Z,42.27
2018-03-01T03:33:36.942Z,42.36
2018-03-01T03:34:36.946Z,42.55
2018-03-01T03:35:36.918Z,42.17
2018-03-01T03:36:36.906Z,42.17
2018-03-01T03:37:36.896Z,42.36
2018-03-01T03:38:36.882Z,42.24
2018-03-01T03:39:36.871Z,42.17
2018-03-01T03:40:36.881Z,42.24
2018-03-01T03:41:36.848Z,42.55
2018-03-01T03:42:36.835Z,42.46
2018-03-01T03:43:36.823Z,42.46
2018-03-01T03:44:36.812Z,42.65
2018-03-01T03:45:36.800Z,42.55
2018-03-01T03:46:36.804Z,42.17
2018-03-01T03:47:36.777Z,42.17
2018-03-01T03:48:36.764Z,42.17
2018-03-01T03:49:36.753Z,42.55
2018-03-01T03:50:36.740Z,42.55
2018-03-01T03:51:36.729Z,42.53
2018-03-01T03:52:36.730Z,42.55
2018-03-01T03:53:36.706Z,42.65
2018-03-01T03:54:36.693Z,42.65
2018-03-01T03:55:36.682Z,42.46
2018-03-01T03:56:36.671Z,42.46
2018-03-01T03:57:36.681Z,42.55
2018-03-01T03:58:36.646Z,42.55
2018-03-01T03:59:36.634Z,42.74
2018-03-01T04:00:36.624Z,42.65
2018-03-01T04:01:36.613Z,42.72
2018-03-01T04:02:36.598Z,42.74
2018-03-01T04:03:36.636Z,42.63
2018-03-01T04:04:36.577Z,42.91
2018-03-01T04:05:36.563Z,42.44
2018-03-01T04:06:36.551Z,42.44
2018-03-01T04:07:36.539Z,42.72
2018-03-01T04:08:36.527Z,42.44
2018-03-01T04:09:36.527Z,42.82
2018-03-01T04:10:36.504Z,42.53
2018-03-01T04:11:36.493Z,42.34
2018-03-01T04:12:36.480Z,42.63
2018-03-01T04:13:36.483Z,42.72
2018-03-01T04:14:36.480Z,42.53
2018-03-01T04:15:36.446Z,42.91
2018-03-01T04:16:36.435Z,42.63
2018-03-01T04:17:36.422Z,42.53
2018-03-01T04:18:36.409Z,42.53
2018-03-01T04:19:36.398Z,42.82
2018-03-01T04:20:36.404Z,42.44
2018-03-01T04:21:36.375Z,42.72
2018-03-01T04:22:36.360Z,42.44
2018-03-01T04:23:36.350Z,42.24
2018-03-01T04:24:36.339Z,42.24
2018-03-01T04:25:36.330Z,42.27
2018-03-01T04:26:36.324Z,42.27
2018-03-01T04:27:36.306Z,42.17
2018-03-01T04:28:36.291Z,42.36
2018-03-01T04:29:36.280Z,42.17
2018-03-01T04:30:36.267Z,42.27
2018-03-01T04:31:36.278Z,42.17
2018-03-01T04:32:36.242Z,42.07
2018-03-01T04:33:36.233Z,42.17
2018-03-01T04:34:36.220Z,42.17
2018-03-01T04:35:36.211Z,42.17
2018-03-01T04:36:36.196Z,42.17
2018-03-01T04:37:36.201Z,42.27
2018-03-01T04:38:36.171Z,42.17
2018-03-01T04:39:36.161Z,42.27
2018-03-01T04:40:36.149Z,42.17
2018-03-01T04:41:36.137Z,42.17
2018-03-01T04:42:36.124Z,42.17
2018-03-01T04:43:36.124Z,42.17
2018-03-01T04:44:36.104Z,42.07
2018-03-01T04:45:36.089Z,42.17
2018-03-01T04:46:36.076Z,42.27
2018-03-01T04:47:36.065Z,42.07
2018-03-01T04:48:36.076Z,42.07
2018-03-01T04:49:36.042Z,42.07
2018-03-01T04:50:36.030Z,42.17
2018-03-01T04:51:36.021Z,42.07
2018-03-01T04:52:36.007Z,42.07
2018-03-01T04:53:35.994Z,42.17
2018-03-01T04:54:36.000Z,42.36
2018-03-01T04:55:35.970Z,42.24
2018-03-01T04:56:35.959Z,42.27
2018-03-01T04:57:35.947Z,41.88
2018-03-01T04:58:35.934Z,42.36
2018-03-01T04:59:35.927Z,42.17
2018-03-01T05:00:35.928Z,42.36
2018-03-01T05:01:35.900Z,42.17
2018-03-01T05:02:35.891Z,42.27
2018-03-01T05:03:35.876Z,42.46
2018-03-01T05:04:35.864Z,42.17
2018-03-01T05:05:35.852Z,42.17
2018-03-01T05:06:35.862Z,42.55
2018-03-01T05:07:35.830Z,42.36
2018-03-01T05:08:35.817Z,42.07
2018-03-01T05:09:35.805Z,42.17
2018-03-01T05:10:35.792Z,41.88
2018-03-01T05:11:35.779Z,41.69
2018-03-01T05:12:35.784Z,41.69
2018-03-01T05:13:35.757Z,41.40
2018-03-01T05:14:35.745Z,41.31
2018-03-01T05:15:35.731Z,41.60
2018-03-01T05:16:35.770Z,41.69
2018-03-01T05:17:35.710Z,41.42
2018-03-01T05:18:35.709Z,43.07
2018-03-01T05:19:35.686Z,40.48
2018-03-01T05:20:35.676Z,40.10
2018-03-01T05:21:35.662Z,40.10
2018-03-01T05:22:35.653Z,39.62
2018-03-01T05:23:35.661Z,39.72
2018-03-01T05:24:35.626Z,39.81
2018-03-01T05:25:35.615Z,39.81
2018-03-01T05:26:35.603Z,39.72
2018-03-01T05:27:35.590Z,39.33
2018-03-01T05:28:35.578Z,39.72
2018-03-01T05:29:35.588Z,40.10
2018-03-01T05:30:35.564Z,39.72
2018-03-01T05:31:35.544Z,40.10
2018-03-01T05:32:35.544Z,39.62
2018-03-01T05:33:35.532Z,39.23
2018-03-01T05:34:35.507Z,39.04
2018-03-01T05:35:35.505Z,39.33
2018-03-01T05:36:35.482Z,39.62
2018-03-01T05:37:35.470Z,39.62
2018-03-01T05:38:35.458Z,39.33
2018-03-01T05:39:35.449Z,39.62
2018-03-01T05:40:35.461Z,39.72
2018-03-01T05:41:35.421Z,39.62
2018-03-01T05:42:35.410Z,39.72
2018-03-01T05:43:35.398Z,39.89
2018-03-01T05:44:35.388Z,39.91
2018-03-01T05:45:35.374Z,40.00
2018-03-01T05:46:35.378Z,39.70
2018-03-01T05:47:35.365Z,39.79
2018-03-01T05:48:35.341Z,39.89
2018-03-01T05:49:35.330Z,39.79
2018-03-01T05:50:35.313Z,39.89
2018-03-01T05:51:35.303Z,39.70
2018-03-01T05:52:35.304Z,39.79
2018-03-01T05:53:35.280Z,39.50
2018-03-01T05:54:35.274Z,39.60
2018-03-01T05:55:35.254Z,39.50
2018-03-01T05:56:35.242Z,39.50
2018-03-01T05:57:35.257Z,39.31
2018-03-01T05:58:35.216Z,39.31
2018-03-01T05:59:35.205Z,39.79
2018-03-01T06:00:35.194Z,39.70
2018-03-01T06:01:35.183Z,39.98
2018-03-01T06:02:35.190Z,39.98
2018-03-01T06:03:35.177Z,40.17
2018-03-01T06:04:35.151Z,39.98
2018-03-01T06:05:35.136Z,39.98
2018-03-01T06:06:35.121Z,40.08
2018-03-01T06:07:35.110Z,40.08
2018-03-01T06:08:35.098Z,39.98
2018-03-01T06:09:35.097Z,40.08
2018-03-01T06:10:35.074Z,40.08
2018-03-01T06:11:35.061Z,40.08
2018-03-01T06:12:35.050Z,39.98
2018-03-01T06:13:35.039Z,40.08
2018-03-01T06:14:35.073Z,39.98
2018-03-01T06:15:35.014Z,39.98
2018-03-01T06:16:35.002Z,39.98
2018-03-01T06:17:34.991Z,40.08
2018-03-01T06:18:34.978Z,39.89
2018-03-01T06:19:34.966Z,39.60
2018-03-01T06:20:34.971Z,39.79
2018-03-01T06:21:34.945Z,39.70
2018-03-01T06:22:34.931Z,39.50
2018-03-01T06:23:34.919Z,39.60
2018-03-01T06:24:34.909Z,39.60
2018-03-01T06:25:34.896Z,39.70
2018-03-01T06:26:34.899Z,39.60
2018-03-01T06:27:34.871Z,39.79
2018-03-01T06:28:34.859Z,39.79
2018-03-01T06:29:34.848Z,39.70
2018-03-01T06:30:34.833Z,39.70
2018-03-01T06:31:34.822Z,39.50
2018-03-01T06:32:34.821Z,39.70
2018-03-01T06:33:34.800Z,39.60
2018-03-01T06:34:34.786Z,39.60
2018-03-01T06:35:34.774Z,39.60
2018-03-01T06:36:34.763Z,39.31
2018-03-01T06:37:34.788Z,39.31
2018-03-01T06:38:34.738Z,39.70
2018-03-01T06:39:34.726Z,39.70
2018-03-01T06:40:34.714Z,39.41
2018-03-01T06:41:34.702Z,39.50
2018-03-01T06:42:34.738Z,39.60
2018-03-01T06:43:34.694Z,39.60
2018-03-01T06:44:34.668Z,39.50
2018-03-01T06:45:34.657Z,39.79
2018-03-01T06:46:34.641Z,39.50
2018-03-01T06:47:34.629Z,39.60
2018-03-01T06:48:34.618Z,39.79
2018-03-01T06:49:34.624Z,40.08
2018-03-01T06:50:34.593Z,40.08
2018-03-01T06:51:34.581Z,39.98
2018-03-01T06:52:34.570Z,40.08
2018-03-01T06:53:34.558Z,40.08
2018-03-01T06:54:34.562Z,40.08
2018-03-01T06:55:34.533Z,39.98
2018-03-01T06:56:34.522Z,40.08
2018-03-01T06:57:34.510Z,39.98
2018-03-01T06:58:34.498Z,40.08
2018-03-01T06:59:34.487Z,40.08
2018-03-01T07:00:34.491Z,40.08
2018-03-01T07:01:34.463Z,40.08
2018-03-01T07:02:34.449Z,40.17
2018-03-01T07:03:34.438Z,40.08
2018-03-01T07:04:34.425Z,40.17
2018-03-01T07:05:34.414Z,40.17
2018-03-01T07:06:34.411Z,40.08
2018-03-01T07:07:34.389Z,40.17
2018-03-01T07:08:34.377Z,40.08
2018-03-01T07:09:34.369Z,40.37
2018-03-01T07:10:34.354Z,40.08
2018-03-01T07:11:34.374Z,40.08
2018-03-01T07:12:34.331Z,40.17
2018-03-01T07:13:34.317Z,40.27
2018-03-01T07:14:34.305Z,40.17
2018-03-01T07:15:34.293Z,40.08
2018-03-01T07:16:34.280Z,40.08
2018-03-01T07:17:34.286Z,39.98
2018-03-01T07:18:34.257Z,39.98
2018-03-01T07:19:34.244Z,39.98
2018-03-01T07:20:34.232Z,39.98
2018-03-01T07:21:34.220Z,40.08
2018-03-01T07:22:34.237Z,40.17
2018-03-01T07:23:34.221Z,40.08
2018-03-01T07:24:34.185Z,40.08
2018-03-01T07:25:34.173Z,39.98
2018-03-01T07:26:34.160Z,39.89
2018-03-01T07:27:34.148Z,39.70
2018-03-01T07:28:34.135Z,39.41
2018-03-01T07:29:34.142Z,39.70
2018-03-01T07:30:34.113Z,39.89
2018-03-01T07:31:34.111Z,39.50
2018-03-01T07:32:34.089Z,39.41
2018-03-01T07:33:34.076Z,39.70
2018-03-01T07:34:34.063Z,39.70
2018-03-01T07:35:34.078Z,39.50
2018-03-01T07:36:34.040Z,39.41
2018-03-01T07:37:34.029Z,39.60
2018-03-01T07:38:34.015Z,39.41
2018-03-01T07:39:34.004Z,39.41
2018-03-01T07:40:33.992Z,39.79
2018-03-01T07:41:34.003Z,39.89
2018-03-01T07:42:33.967Z,39.79
2018-03-01T07:43:33.952Z,39.89
2018-03-01T07:44:33.947Z,39.89
2018-03-01T07:45:33.959Z,39.70
2018-03-01T07:46:33.919Z,39.89
2018-03-01T07:47:33.922Z,39.89
2018-03-01T07:48:33.895Z,39.89
2018-03-01T07:49:33.883Z,39.89
2018-03-01T07:50:33.870Z,39.72
2018-03-01T07:51:33.859Z,39.50
2018-03-01T07:52:33.847Z,39.41
2018-03-01T07:53:33.859Z,39.70
2018-03-01T07:54:33.823Z,39.70
2018-03-01T07:55:33.810Z,39.41
2018-03-01T07:56:33.799Z,40.08
2018-03-01T07:57:33.787Z,39.89
2018-03-01T07:58:33.775Z,40.08
2018-03-01T07:59:34.585Z,40.08
2018-03-01T08:00:33.755Z,40.08
2018-03-01T08:01:33.739Z,39.98
2018-03-01T08:02:33.728Z,40.08
2018-03-01T08:03:33.714Z,40.08
2018-03-01T08:04:33.706Z,40.08
2018-03-01T08:05:33.707Z,39.98
2018-03-01T08:06:33.678Z,39.98
2018-03-01T08:07:33.668Z,40.08
2018-03-01T08:08:33.654Z,40.08
2018-03-01T08:09:33.643Z,40.08
2018-03-01T08:10:33.629Z,39.98
2018-03-01T08:11:33.633Z,40.08
2018-03-01T08:12:33.606Z,39.98
2018-03-01T08:13:33.595Z,39.98
2018-03-01T08:14:33.582Z,40.08
2018-03-01T08:15:33.570Z,40.08
2018-03-01T08:16:33.559Z,39.98
2018-03-01T08:17:33.570Z,39.98
2018-03-01T08:18:33.534Z,39.41
2018-03-01T08:19:33.522Z,39.60
2018-03-01T08:20:33.509Z,39.50
2018-03-01T08:21:33.498Z,40.37
2018-03-01T08:22:33.485Z,39.70
2018-03-01T08:23:33.490Z,39.41
2018-03-01T08:24:33.461Z,39.70
2018-03-01T08:25:33.453Z,39.70
2018-03-01T08:26:33.437Z,39.41
2018-03-01T08:27:33.426Z,39.50
2018-03-01T08:28:33.413Z,39.41
2018-03-01T08:29:33.417Z,39.72
2018-03-01T08:30:33.388Z,39.41
2018-03-01T08:31:33.377Z,39.41
2018-03-01T08:32:33.365Z,39.50
2018-03-01T08:33:33.352Z,39.41
2018-03-01T08:34:33.340Z,39.31
2018-03-01T08:35:33.351Z,39.70
2018-03-01T08:36:33.316Z,39.70
2018-03-01T08:37:33.304Z,39.41
2018-03-01T08:38:33.292Z,39.31
2018-03-01T08:39:33.281Z,39.60
2018-03-01T08:40:33.269Z,40.17
2018-03-01T08:41:33.273Z,40.17
2018-03-01T08:42:33.244Z,39.81
2018-03-01T08:43:33.233Z,39.79
2018-03-01T08:44:33.223Z,40.27
2018-03-01T08:45:33.209Z,39.79
2018-03-01T08:46:33.196Z,40.27
2018-03-01T08:47:33.199Z,39.70
2018-03-01T08:48:33.171Z,40.08
2018-03-01T08:49:33.159Z,39.98
2018-03-01T08:50:33.147Z,39.89
2018-03-01T08:51:33.193Z,40.08
2018-03-01T08:52:33.123Z,39.98
2018-03-01T08:53:33.122Z,39.98
2018-03-01T08:54:33.098Z,39.98
2018-03-01T08:55:33.087Z,40.08
2018-03-01T08:56:33.076Z,39.89
2018-03-01T08:57:33.065Z,40.08
2018-03-01T08:58:33.067Z,39.98
2018-03-01T08:59:33.039Z,39.89
2018-03-01T09:00:33.026Z,39.98
2018-03-01T09:01:33.015Z,40.08
2018-03-01T09:02:33.003Z,39.98
2018-03-01T09:03:32.995Z,40.08
2018-03-01T09:04:32.996Z,40.08
2018-03-01T09:05:32.968Z,39.98
2018-03-01T09:06:32.954Z,39.98
2018-03-01T09:07:32.944Z,40.08
2018-03-01T09:08:32.930Z,39.98
2018-03-01T09:09:32.919Z,40.00
2018-03-01T09:10:32.916Z,39.98
2018-03-01T09:11:32.894Z,40.08
2018-03-01T09:12:32.883Z,39.98
2018-03-01T09:13:32.871Z,40.10
2018-03-01T09:14:32.858Z,40.08
2018-03-01T09:15:32.883Z,40.10
2018-03-01T09:16:32.835Z,40.00
2018-03-01T09:17:32.823Z,40.20
2018-03-01T09:18:32.813Z,40.20
2018-03-01T09:19:32.798Z,39.62
2018-03-01T09:20:32.786Z,39.62
2018-03-01T09:21:32.810Z,39.53
2018-03-01T09:22:32.763Z,39.72
2018-03-01T09:23:32.755Z,39.62
2018-03-01T09:24:32.737Z,39.72
2018-03-01T09:25:32.726Z,39.81
2018-03-01T09:26:32.721Z,40.00
2018-03-01T09:27:32.742Z,39.81
2018-03-01T09:28:32.688Z,39.91
2018-03-01T09:29:32.677Z,39.81
2018-03-01T09:30:32.673Z,39.81
2018-03-01T09:31:32.653Z,39.72
2018-03-01T09:32:32.640Z,39.81
2018-03-01T09:33:32.642Z,39.72
2018-03-01T09:34:32.617Z,40.00
2018-03-01T09:35:32.606Z,40.00
2018-03-01T09:36:32.595Z,39.72
2018-03-01T09:37:32.582Z,39.91
2018-03-01T09:38:32.592Z,40.00
2018-03-01T09:39:32.556Z,39.53
2018-03-01T09:40:32.545Z,39.53
2018-03-01T09:41:32.533Z,39.23
2018-03-01T09:42:32.521Z,39.72
2018-03-01T09:43:32.504Z,39.72
2018-03-01T09:44:32.521Z,39.14
2018-03-01T09:45:32.484Z,39.04
2018-03-01T09:46:32.473Z,39.72
2018-03-01T09:47:32.460Z,39.43
2018-03-01T09:48:32.449Z,39.43
2018-03-01T09:49:32.436Z,39.33
2018-03-01T09:50:32.434Z,39.43
2018-03-01T09:51:32.412Z,39.43
2018-03-01T09:52:32.404Z,39.23
2018-03-01T09:53:32.388Z,39.43
2018-03-01T09:54:32.376Z,39.04
2018-03-01T09:55:32.382Z,39.23
2018-03-01T09:56:32.354Z,39.04
2018-03-01T09:57:32.341Z,39.23
2018-03-01T09:58:32.328Z,39.43
2018-03-01T09:59:32.315Z,39.62
2018-03-01T10:00:32.306Z,39.53
2018-03-01T10:01:32.316Z,39.62
2018-03-01T10:02:32.278Z,39.81
2018-03-01T10:03:32.268Z,39.43
2018-03-01T10:04:32.257Z,39.62
2018-03-01T10:05:32.244Z,39.62
2018-03-01T10:06:32.235Z,39.53
2018-03-01T10:07:32.230Z,39.62
2018-03-01T10:08:32.211Z,39.53
2018-03-01T10:09:32.196Z,39.72
2018-03-01T10:10:32.182Z,39.53
2018-03-01T10:11:32.172Z,39.53
2018-03-01T10:12:32.178Z,39.72
2018-03-01T10:13:32.149Z,39.72
2018-03-01T10:14:32.139Z,39.72
2018-03-01T10:15:32.123Z,39.62
2018-03-01T10:16:32.112Z,39.81
2018-03-01T10:17:32.100Z,39.91
2018-03-01T10:18:32.114Z,39.91
2018-03-01T10:19:32.082Z,39.72
2018-03-01T10:20:32.063Z,39.91
2018-03-01T10:21:32.052Z,39.72
2018-03-01T10:22:32.040Z,39.62
2018-03-01T10:23:32.028Z,39.62
2018-03-01T10:24:32.028Z,39.62
2018-03-01T10:25:32.004Z,39.91
2018-03-01T10:26:31.993Z,40.00
2018-03-01T10:27:31.980Z,39.81
2018-03-01T10:28:31.968Z,39.72
2018-03-01T10:29:31.974Z,39.72
2018-03-01T10:30:31.943Z,39.72
2018-03-01T10:31:31.932Z,39.81
2018-03-01T10:32:31.920Z,39.72
2018-03-01T10:33:31.909Z,40.00
2018-03-01T10:34:31.894Z,39.72
2018-03-01T10:35:31.909Z,40.00
2018-03-01T10:36:31.874Z,39.81
2018-03-01T10:37:31.862Z,40.00
2018-03-01T10:38:31.850Z,40.00
2018-03-01T10:39:31.837Z,40.00
2018-03-01T10:40:31.825Z,39.72
2018-03-01T10:41:31.822Z,39.72
2018-03-01T10:42:31.800Z,39.81
2018-03-01T10:43:31.788Z,39.91
2018-03-01T10:44:31.776Z,39.72
2018-03-01T10:45:31.765Z,39.72
2018-03-01T10:46:31.769Z,39.91
2018-03-01T10:47:31.740Z,39.81
2018-03-01T10:48:31.731Z,39.81
2018-03-01T10:49:31.717Z,39.81
2018-03-01T10:50:31.703Z,39.72
2018-03-01T10:51:31.693Z,39.72
2018-03-01T10:52:31.705Z,39.81
2018-03-01T10:53:31.668Z,39.62
2018-03-01T10:54:31.656Z,39.81
2018-03-01T10:55:31.644Z,39.53
2018-03-01T10:56:31.632Z,39.81
2018-03-01T10:57:31.622Z,39.43
2018-03-01T10:58:31.624Z,39.43
2018-03-01T10:59:31.608Z,39.53
2018-03-01T11:00:31.585Z,39.43
2018-03-01T11:01:31.572Z,39.72
2018-03-01T11:02:31.560Z,40.10
2018-03-01T11:03:31.548Z,40.10
2018-03-01T11:04:31.547Z,40.10
2018-03-01T11:05:31.525Z,39.91
2018-03-01T11:06:31.511Z,40.10
2018-03-01T11:07:31.500Z,40.10
2018-03-01T11:08:31.490Z,40.10
2018-03-01T11:09:31.505Z,40.10
2018-03-01T11:10:31.467Z,40.00
2018-03-01T11:11:31.452Z,40.10
2018-03-01T11:12:31.440Z,40.00
2018-03-01T11:13:31.428Z,40.00
2018-03-01T11:14:31.415Z,39.91
2018-03-01T11:15:31.427Z,40.00
2018-03-01T11:16:31.392Z,39.91
2018-03-01T11:17:31.380Z,40.10
2018-03-01T11:18:31.367Z,40.00
2018-03-01T11:19:31.355Z,40.10
2018-03-01T11:20:31.345Z,40.10
2018-03-01T11:21:31.343Z,40.20
2018-03-01T11:22:31.319Z,40.20
2018-03-01T11:23:31.307Z,39.91
2018-03-01T11:24:31.296Z,39.72
2018-03-01T11:25:31.284Z,39.72
2018-03-01T11:26:31.311Z,39.62
2018-03-01T11:27:31.259Z,39.33
2018-03-01T11:28:31.247Z,39.33
2018-03-01T11:29:31.236Z,39.62
2018-03-01T11:30:31.222Z,39.62
2018-03-01T11:31:31.211Z,39.53
2018-03-01T11:32:31.217Z,39.43
2018-03-01T11:33:31.191Z,39.43
2018-03-01T11:34:31.174Z,39.43
2018-03-01T11:35:31.162Z,39.62
2018-03-01T11:36:31.153Z,39.62
2018-03-01T11:37:31.138Z,39.53
2018-03-01T11:38:31.138Z,39.53
2018-03-01T11:39:31.114Z,39.62
2018-03-01T11:40:31.102Z,39.43
2018-03-01T11:41:31.091Z,39.43
2018-03-01T11:42:31.078Z,39.53
2018-03-01T11:43:31.096Z,39.81
2018-03-01T11:44:31.054Z,39.72
2018-03-01T11:45:31.042Z,40.00
2018-03-01T11:46:31.031Z,39.91
2018-03-01T11:47:31.019Z,40.10
2018-03-01T11:48:31.005Z,40.00
2018-03-01T11:49:31.012Z,40.00
2018-03-01T11:50:30.981Z,40.10
2018-03-01T11:51:30.969Z,40.10
2018-03-01T11:52:30.961Z,40.10
2018-03-01T11:53:30.946Z,40.10
2018-03-01T11:54:30.938Z,40.00
2018-03-01T11:55:30.934Z,40.10
2018-03-01T11:56:30.910Z,40.10
2018-03-01T11:57:30.897Z,40.10
2018-03-01T11:58:30.883Z,40.00
2018-03-01T11:59:30.874Z,40.10
2018-03-01T12:00:30.884Z,40.00
2018-03-01T12:01:30.849Z,40.10
2018-03-01T12:02:30.836Z,40.10
2018-03-01T12:03:30.831Z,40.20
2018-03-01T12:04:30.812Z,40.10
2018-03-01T12:05:30.802Z,40.20
2018-03-01T12:06:30.804Z,40.39
2018-03-01T12:07:30.777Z,40.20
2018-03-01T12:08:30.770Z,40.10
2018-03-01T12:09:30.754Z,40.48
2018-03-01T12:10:30.806Z,40.48
2018-03-01T12:11:30.728Z,40.27
2018-03-01T12:12:30.733Z,40.39
2018-03-01T12:13:30.707Z,40.29
2018-03-01T12:14:30.692Z,40.20
2018-03-01T12:15:30.680Z,40.39
2018-03-01T12:16:30.669Z,40.39
2018-03-01T12:17:30.656Z,40.39
2018-03-01T12:18:30.656Z,40.48
2018-03-01T12:19:30.632Z,40.39
2018-03-01T12:20:30.620Z,40.29
2018-03-01T12:21:30.609Z,40.29
2018-03-01T12:22:30.596Z,40.48
2018-03-01T12:23:30.600Z,40.10
2018-03-01T12:24:30.574Z,40.20
2018-03-01T12:25:30.559Z,40.10
2018-03-01T12:26:30.546Z,40.20
2018-03-01T12:27:30.536Z,40.20
2018-03-01T12:28:30.523Z,40.00
2018-03-01T12:29:30.527Z,40.10
2018-03-01T12:30:30.497Z,40.00
2018-03-01T12:31:30.486Z,40.00
2018-03-01T12:32:30.475Z,40.10
2018-03-01T12:33:30.463Z,40.10
2018-03-01T12:34:30.451Z,40.10
2018-03-01T12:35:30.454Z,40.00
2018-03-01T12:36:30.427Z,40.10
2018-03-01T12:37:30.415Z,39.91
2018-03-01T12:38:30.401Z,39.91
2018-03-01T12:39:30.390Z,40.00
2018-03-01T12:40:30.398Z,39.91
2018-03-01T12:41:30.367Z,39.91
2018-03-01T12:42:30.360Z,40.00
2018-03-01T12:43:30.362Z,39.91
2018-03-01T12:44:30.330Z,39.72
2018-03-01T12:45:30.317Z,39.91
2018-03-01T12:46:30.324Z,40.00
2018-03-01T12:47:30.295Z,40.10
2018-03-01T12:48:30.281Z,39.91
2018-03-01T12:49:30.270Z,40.10
2018-03-01T12:50:30.256Z,40.10
2018-03-01T12:51:30.245Z,40.10
2018-03-01T12:52:30.245Z,40.10